createdAt,value
2018-08-25T00:00:40.370Z,27.6
2018-08-25T00:01:30.416Z,27.5
2018-08-25T00:02:20.463Z,27.5
2018-08-25T00:03:10.813Z,27.5
2018-08-25T00:04:00.610Z,27.5
2018-08-25T00:04:51.256Z,27.5
2018-08-25T00:05:41.253Z,27.5
2018-08-25T00:06:31.087Z,27.5
2018-08-25T00:07:21.138Z,27.5
2018-08-25T00:08:10.938Z,27.5
2018-08-25T00:09:01.323Z,27.5
2018-08-25T00:09:51.356Z,27.5
2018-08-25T00:10:41.987Z,27.5
2018-08-25T00:11:31.451Z,27.5
2018-08-25T00:12:21.546Z,27.5
2018-08-25T00:31:17.238Z,27.4
2018-08-25T00:32:07.220Z,27.4
2018-08-25T00:32:57.301Z,27.4
2018-08-25T00:33:47.657Z,27.4
2018-08-25T00:34:37.703Z,27.4
2018-08-25T00:35:27.767Z,27.4
2018-08-25T00:36:17.817Z,27.4
2018-08-25T00:37:08.157Z,27.4
2018-08-25T00:37:57.955Z,27.4
2018-08-25T00:38:48.554Z,27.4
2018-08-25T00:39:38.387Z,27.4
2018-08-25T00:40:28.158Z,27.4
2018-08-25T00:41:18.506Z,27.4
2018-08-25T00:42:08.337Z,27.4
2018-08-25T00:42:57.492Z,27.4
2018-08-25T00:43:48.647Z,27.4
2018-08-25T00:44:38.214Z,27.4
2018-08-25T00:45:28.246Z,27.4
2018-08-25T00:46:18.877Z,27.4
2018-08-25T00:47:09.197Z,27.4
2018-08-25T00:47:59.194Z,27.4
2018-08-25T00:48:48.819Z,27.4
2018-08-25T00:49:38.909Z,27.4
2018-08-25T00:50:29.218Z,27.4
2018-08-25T00:51:19.006Z,27.4
2018-08-25T00:52:08.479Z,27.4
2018-08-25T00:52:58.835Z,27.4
2018-08-25T00:53:48.916Z,27.3
2018-08-25T00:54:38.692Z,27.4
2018-08-25T00:55:29.620Z,27.4
2018-08-25T00:56:19.110Z,27.4
2018-08-25T00:57:09.747Z,27.4
2018-08-25T00:57:59.181Z,27.4
2018-08-25T00:58:49.593Z,27.4
2018-08-25T00:59:39.092Z,27.4
2018-08-25T01:00:29.718Z,27.3
2018-08-25T01:01:19.772Z,27.3
2018-08-25T01:02:10.122Z,27.4
2018-08-25T01:02:59.599Z,27.3
2018-08-25T01:03:49.940Z,27.3
2018-08-25T01:04:40.022Z,27.3
2018-08-25T01:05:29.818Z,27.3
2018-08-25T01:06:19.585Z,27.3
2018-08-25T01:07:10.445Z,27.3
2018-08-25T01:08:00.633Z,27.4
2018-08-25T01:08:50.091Z,27.3
2018-08-25T01:09:40.132Z,27.3
2018-08-25T01:10:30.779Z,27.3
2018-08-25T01:11:20.247Z,27.3
2018-08-25T01:12:10.399Z,27.3
2018-08-25T01:13:00.696Z,27.3
2018-08-25T01:13:50.753Z,27.4
2018-08-25T01:14:40.883Z,27.3
2018-08-25T01:15:30.728Z,27.3
2018-08-25T01:16:20.927Z,27.3
2018-08-25T01:17:11.020Z,27.3
2018-08-25T01:18:01.042Z,27.3
2018-08-25T01:18:51.425Z,27.3
2018-08-25T01:19:40.727Z,27.3
2018-08-25T01:20:31.293Z,27.3
2018-08-25T01:21:20.775Z,27.3
2018-08-25T01:22:11.380Z,27.3
2018-08-25T01:23:01.991Z,27.3
2018-08-25T01:23:51.781Z,27.3
2018-08-25T01:24:41.300Z,27.3
2018-08-25T01:25:31.961Z,27.3
2018-08-25T01:26:21.724Z,27.3
2018-08-25T01:27:11.483Z,27.3
2018-08-25T01:28:01.569Z,27.3
2018-08-25T01:28:51.627Z,27.3
2018-08-25T01:29:41.418Z,27.3
2018-08-25T01:30:32.342Z,27.3
2018-08-25T01:31:21.809Z,27.3
2018-08-25T01:32:12.270Z,27.3
2018-08-25T01:33:02.489Z,27.3
2018-08-25T01:33:52.275Z,27.3
2018-08-25T01:34:42.065Z,27.3
2018-08-25T01:35:32.727Z,27.3
2018-08-25T01:36:22.489Z,27.3
2018-08-25T01:37:12.287Z,27.3
2018-08-25T01:38:02.895Z,27.3
2018-08-25T01:38:52.678Z,27.3
2018-08-25T01:39:43.067Z,27.3
2018-08-25T01:40:32.800Z,27.3
2018-08-25T01:41:22.886Z,27.3
2018-08-25T01:42:12.414Z,27.3
2018-08-25T01:43:03.309Z,27.3
2018-08-25T01:43:53.074Z,27.2
2018-08-25T01:44:43.704Z,27.3
2018-08-25T01:45:33.473Z,27.2
2018-08-25T01:46:23.251Z,27.3
2018-08-25T01:47:13.624Z,27.3
2018-08-25T01:48:03.086Z,27.3
2018-08-25T01:48:53.131Z,27.3
2018-08-25T01:49:43.250Z,27.3
2018-08-25T01:50:33.622Z,27.3
2018-08-25T01:51:23.106Z,27.2
2018-08-25T01:52:14.012Z,27.2
2018-08-25T01:53:03.502Z,27.2
2018-08-25T01:53:53.860Z,27.2
2018-08-25T01:54:44.197Z,27.2
2018-08-25T01:55:34.242Z,27.2
2018-08-25T01:56:24.054Z,27.2
2018-08-25T01:57:14.120Z,27.2
2018-08-25T01:58:03.917Z,27.2
2018-08-25T01:58:54.552Z,27.2
2018-08-25T01:59:44.315Z,27.2
2018-08-25T02:00:34.622Z,27.2
2018-08-25T02:01:24.451Z,27.2
2018-08-25T02:02:14.501Z,27.2
2018-08-25T02:03:04.872Z,27.2
2018-08-25T02:03:54.869Z,27.2
2018-08-25T02:04:44.697Z,27.2
2018-08-25T02:05:34.744Z,27.2
2018-08-25T02:06:25.135Z,27.2
2018-08-25T02:07:14.619Z,27.2
2018-08-25T02:08:04.956Z,27.2
2018-08-25T02:08:55.311Z,27.2
2018-08-25T02:09:45.146Z,27.2
2018-08-25T02:10:34.648Z,27.2
2018-08-25T02:11:25.210Z,27.2
2018-08-25T02:12:14.979Z,27.2
2018-08-25T02:13:05.643Z,27.2
2018-08-25T02:13:55.914Z,27.2
2018-08-25T02:14:45.171Z,27.1
2018-08-25T02:15:35.754Z,27.1
2018-08-25T02:16:25.912Z,27.2
2018-08-25T02:17:15.665Z,27.1
2018-08-25T02:18:05.714Z,27.1
2018-08-25T02:18:56.051Z,27.1
2018-08-25T02:19:45.588Z,27.1
2018-08-25T02:20:35.897Z,27.1
2018-08-25T02:21:25.687Z,27.2
2018-08-25T02:22:16.315Z,27.1
2018-08-25T02:23:06.392Z,27.1
2018-08-25T02:23:56.179Z,27.1
2018-08-25T02:24:46.217Z,27.1
2018-08-25T02:25:35.742Z,27.1
2018-08-25T02:26:26.659Z,27.1
2018-08-25T02:27:16.722Z,27.1
2018-08-25T02:28:06.883Z,27.1
2018-08-25T02:28:56.585Z,27.1
2018-08-25T02:29:46.359Z,27.1
2018-08-25T02:30:36.713Z,27.1
2018-08-25T02:31:26.162Z,27.1
2018-08-25T02:32:17.112Z,27.1
2018-08-25T02:33:06.898Z,27.1
2018-08-25T02:33:56.971Z,27.1
2018-08-25T02:34:47.044Z,27.1
2018-08-25T02:35:37.349Z,27.1
2018-08-25T02:36:27.145Z,27.1
2018-08-25T02:37:17.498Z,27.1
2018-08-25T02:38:07.016Z,27.1
2018-08-25T02:38:56.784Z,27.1
2018-08-25T02:39:47.361Z,27.1
2018-08-25T02:40:37.294Z,27.1
2018-08-25T02:41:27.566Z,27.1
2018-08-25T02:42:18.186Z,27.1
2018-08-25T02:43:07.664Z,27.1
2018-08-25T02:43:57.179Z,27.1
2018-08-25T02:44:47.576Z,27.1
2018-08-25T02:45:38.233Z,27.1
2018-08-25T02:46:28.220Z,27.1
2018-08-25T02:47:18.264Z,27.1
2018-08-25T02:48:08.086Z,27.1
2018-08-25T02:48:57.806Z,27.1
2018-08-25T02:49:48.178Z,27.1
2018-08-25T02:50:38.224Z,27.1
2018-08-25T02:51:28.125Z,27.1
2018-08-25T02:52:18.358Z,27.1
2018-08-25T02:53:08.431Z,27.1
2018-08-25T02:53:58.219Z,27.1
2018-08-25T02:54:48.811Z,27.1
2018-08-25T02:55:38.914Z,27.1
2018-08-25T02:56:28.997Z,27.1
2018-08-25T02:57:18.761Z,27.1
2018-08-25T02:58:07.979Z,27.1
2018-08-25T02:58:58.898Z,27
2018-08-25T02:59:49.004Z,27.1
2018-08-25T03:00:39.040Z,27.1
2018-08-25T03:01:28.819Z,27.1
2018-08-25T03:02:19.146Z,27.1
2018-08-25T03:03:09.222Z,27.1
2018-08-25T03:03:59.573Z,27
2018-08-25T03:04:49.342Z,27.1
2018-08-25T03:05:39.395Z,27.1
2018-08-25T03:06:29.471Z,27.1
2018-08-25T03:07:19.835Z,27.1
2018-08-25T03:08:09.912Z,27.1
2018-08-25T03:08:59.949Z,27.1
2018-08-25T03:09:50.032Z,27.1
2018-08-25T03:10:40.080Z,27.1
2018-08-25T03:11:29.880Z,27.1
2018-08-25T03:12:20.203Z,27
2018-08-25T03:13:09.694Z,27
2018-08-25T03:14:00.392Z,27.1
2018-08-25T03:14:49.841Z,27
2018-08-25T03:15:39.591Z,27
2018-08-25T03:16:30.277Z,27.1
2018-08-25T03:17:20.335Z,27
2018-08-25T03:18:10.374Z,27.1
2018-08-25T03:19:00.188Z,27
2018-08-25T03:19:50.535Z,27
2018-08-25T03:20:40.707Z,27.1
2018-08-25T03:21:30.361Z,27
2018-08-25T03:22:20.679Z,27
2018-08-25T03:23:11.092Z,27.1
2018-08-25T03:24:01.176Z,27
2018-08-25T03:24:51.192Z,27
2018-08-25T03:25:40.712Z,27
2018-08-25T03:26:31.827Z,27
2018-08-25T03:27:21.404Z,27
2018-08-25T03:28:11.451Z,27
2018-08-25T03:29:01.232Z,27
2018-08-25T03:29:51.254Z,27
2018-08-25T03:30:41.630Z,27
2018-08-25T03:31:31.409Z,27
2018-08-25T03:32:21.874Z,27
2018-08-25T03:33:11.550Z,27
2018-08-25T03:34:01.616Z,27
2018-08-25T03:34:51.111Z,27
2018-08-25T03:35:42.007Z,27
2018-08-25T03:36:31.802Z,27
2018-08-25T03:37:21.851Z,27
2018-08-25T03:38:12.209Z,27
2018-08-25T03:39:02.026Z,27
2018-08-25T03:39:52.078Z,27
2018-08-25T03:40:42.438Z,27
2018-08-25T03:41:31.914Z,26.9
2018-08-25T03:42:22.585Z,27
2018-08-25T03:43:12.079Z,26.9
2018-08-25T03:44:02.987Z,27
2018-08-25T03:44:52.192Z,27
2018-08-25T03:45:42.552Z,27
2018-08-25T03:46:32.311Z,27
2018-08-25T03:47:22.475Z,27
2018-08-25T03:48:12.706Z,27
2018-08-25T03:49:02.255Z,27
2018-08-25T03:49:53.153Z,27
2018-08-25T03:50:43.432Z,27
2018-08-25T03:51:32.403Z,27
2018-08-25T03:52:23.063Z,27
2018-08-25T03:53:13.099Z,27
2018-08-25T03:54:02.302Z,27
2018-08-25T03:54:53.520Z,27
2018-08-25T03:55:43.303Z,27
2018-08-25T03:56:33.700Z,27
2018-08-25T03:57:23.701Z,27
2018-08-25T03:58:12.932Z,27
2018-08-25T03:59:03.865Z,27.1
2018-08-25T03:59:53.055Z,27
2018-08-25T04:00:43.965Z,27.1
2018-08-25T04:01:34.572Z,27
2018-08-25T04:02:24.085Z,27
2018-08-25T04:03:13.907Z,27.1
2018-08-25T04:04:04.210Z,27
2018-08-25T04:04:54.290Z,27
2018-08-25T04:05:44.337Z,27
2018-08-25T04:06:34.395Z,27
2018-08-25T04:07:24.205Z,27.1
2018-08-25T04:08:14.265Z,27
2018-08-25T04:09:04.611Z,27
2018-08-25T04:09:53.795Z,27
2018-08-25T04:10:44.473Z,27.1
2018-08-25T04:11:34.822Z,27.1
2018-08-25T04:12:23.417Z,27.1
2018-08-25T04:13:14.942Z,27.1
2018-08-25T04:14:04.694Z,27.1
2018-08-25T04:14:55.837Z,27.2
2018-08-25T04:15:44.585Z,27.2
2018-08-25T04:16:34.623Z,27.2
2018-08-25T04:17:25.289Z,27.2
2018-08-25T04:18:15.050Z,27.1
2018-08-25T04:19:05.098Z,27.1
2018-08-25T04:19:55.199Z,27.1
2018-08-25T04:20:45.524Z,27.1
2018-08-25T04:21:35.589Z,27.1
2018-08-25T04:22:25.899Z,27.1
2018-08-25T04:23:15.162Z,27.1
2018-08-25T04:24:05.203Z,27.1
2018-08-25T04:24:55.849Z,27.1
2018-08-25T04:25:45.434Z,27.1
2018-08-25T04:26:35.700Z,27.1
2018-08-25T04:27:25.507Z,27.1
2018-08-25T04:28:16.114Z,27.1
2018-08-25T04:29:05.899Z,27.1
2018-08-25T04:29:56.211Z,27.1
2018-08-25T04:30:46.284Z,27.1
2018-08-25T04:31:36.114Z,27.1
2018-08-25T04:32:26.399Z,27.1
2018-08-25T04:33:16.585Z,27.1
2018-08-25T04:34:06.272Z,27.1
2018-08-25T04:34:56.644Z,27.1
2018-08-25T04:35:46.716Z,27.1
2018-08-25T04:36:36.743Z,27.1
2018-08-25T04:37:26.742Z,27.1
2018-08-25T04:38:16.629Z,27.1
2018-08-25T04:39:06.931Z,27.1
2018-08-25T04:39:56.978Z,27.1
2018-08-25T04:40:46.765Z,27.1
2018-08-25T04:41:36.552Z,27.1
2018-08-25T04:42:27.442Z,27
2018-08-25T05:00:25.836Z,26.9
2018-08-25T05:01:15.423Z,26.9
2018-08-25T05:02:05.871Z,26.9
2018-08-25T05:02:55.531Z,26.9
2018-08-25T05:03:45.633Z,26.9
2018-08-25T05:04:35.232Z,26.9
2018-08-25T05:05:25.935Z,26.9
2018-08-25T05:06:15.822Z,26.9
2018-08-25T05:07:06.123Z,26.9
2018-08-25T05:07:55.929Z,26.9
2018-08-25T05:08:45.942Z,26.9
2018-08-25T05:09:35.579Z,26.9
2018-08-25T05:10:25.888Z,26.9
2018-08-25T05:11:16.161Z,26.9
2018-08-25T05:12:06.230Z,26.9
2018-08-25T05:12:56.306Z,26.9
2018-08-25T05:13:46.039Z,26.9
2018-08-25T05:14:36.443Z,26.9
2018-08-25T05:15:26.500Z,26.9
2018-08-25T05:16:16.843Z,26.9
2018-08-25T05:17:06.618Z,26.9
2018-08-25T05:17:56.689Z,26.8
2018-08-25T05:18:46.697Z,26.9
2018-08-25T05:19:37.124Z,26.9
2018-08-25T05:20:26.589Z,26.9
2018-08-25T05:21:16.666Z,26.9
2018-08-25T05:22:07.921Z,26.9
2018-08-25T05:22:57.353Z,26.8
2018-08-25T05:23:47.415Z,26.8
2018-08-25T05:24:37.484Z,26.8
2018-08-25T05:25:27.510Z,26.8
2018-08-25T05:26:17.605Z,26.8
2018-08-25T05:27:07.105Z,26.8
2018-08-25T05:27:57.729Z,26.8
2018-08-25T05:28:47.778Z,26.8
2018-08-25T05:29:37.877Z,26.8
2018-08-25T05:30:27.355Z,26.8
2018-08-25T05:31:17.412Z,26.8
2018-08-25T05:32:08.072Z,26.8
2018-08-25T05:32:58.121Z,26.8
2018-08-25T05:33:48.177Z,26.8
2018-08-25T05:34:37.998Z,26.8
2018-08-25T05:35:27.764Z,26.8
2018-08-25T05:36:18.390Z,26.8
2018-08-25T05:37:08.118Z,26.8
2018-08-25T05:37:57.952Z,26.8
2018-08-25T05:38:48.822Z,26.8
2018-08-25T05:39:38.062Z,26.8
2018-08-25T05:40:28.132Z,26.8
2018-08-25T05:41:18.508Z,26.8
2018-08-25T05:42:08.545Z,26.8
2018-08-25T05:42:58.882Z,26.8
2018-08-25T05:43:49.235Z,26.8
2018-08-25T05:44:38.256Z,26.8
2018-08-25T05:45:28.820Z,26.8
2018-08-25T05:46:18.596Z,26.8
2018-08-25T05:47:09.224Z,26.8
2018-08-25T05:47:58.434Z,26.8
2018-08-25T05:48:48.812Z,26.8
2018-08-25T05:49:38.572Z,26.8
2018-08-25T05:50:29.177Z,26.8
2018-08-25T05:51:19.525Z,26.8
2018-08-25T05:52:09.657Z,26.8
2018-08-25T05:52:59.902Z,26.8
2018-08-25T05:53:49.458Z,26.8
2018-08-25T05:54:39.819Z,26.8
2018-08-25T05:55:29.842Z,26.7
2018-08-25T05:56:19.912Z,26.8
2018-08-25T05:57:09.702Z,26.8
2018-08-25T05:58:00.351Z,26.8
2018-08-25T05:58:50.137Z,26.8
2018-08-25T05:59:40.179Z,26.7
2018-08-25T06:00:29.944Z,26.8
2018-08-25T06:01:19.727Z,26.7
2018-08-25T06:02:09.811Z,26.7
2018-08-25T06:03:00.411Z,26.7
2018-08-25T06:03:50.187Z,26.8
2018-08-25T06:04:40.247Z,26.7
2018-08-25T06:05:30.625Z,26.7
2018-08-25T06:06:20.398Z,26.7
2018-08-25T06:07:10.445Z,26.7
2018-08-25T06:08:00.051Z,26.7
2018-08-25T06:08:50.902Z,26.7
2018-08-25T06:09:40.630Z,26.7
2018-08-25T06:10:30.989Z,26.7
2018-08-25T06:11:21.080Z,26.7
2018-08-25T06:12:11.106Z,26.7
2018-08-25T06:13:01.168Z,26.7
2018-08-25T06:13:51.273Z,26.7
2018-08-25T06:14:41.553Z,26.7
2018-08-25T06:15:31.358Z,26.7
2018-08-25T06:16:21.119Z,26.7
2018-08-25T06:17:11.477Z,26.7
2018-08-25T06:18:01.282Z,26.7
2018-08-25T06:18:51.860Z,26.7
2018-08-25T06:19:41.667Z,26.6
2018-08-25T06:20:31.770Z,26.7
2018-08-25T06:21:21.539Z,26.7
2018-08-25T06:22:11.602Z,26.7
2018-08-25T06:23:01.700Z,26.7
2018-08-25T06:23:51.500Z,26.6
2018-08-25T06:24:41.794Z,26.6
2018-08-25T06:25:31.565Z,26.6
2018-08-25T06:26:21.625Z,26.6
2018-08-25T06:27:12.286Z,26.6
2018-08-25T06:28:02.596Z,26.7
2018-08-25T06:28:52.344Z,26.6
2018-08-25T06:29:43.040Z,26.7
2018-08-25T06:30:32.530Z,26.6
2018-08-25T06:31:22.299Z,26.6
2018-08-25T06:32:12.106Z,26.6
2018-08-25T06:33:02.676Z,26.6
2018-08-25T06:33:52.227Z,26.6
2018-08-25T06:34:42.828Z,26.7
2018-08-25T06:35:32.314Z,26.7
2018-08-25T06:36:22.958Z,26.6
2018-08-25T06:37:12.750Z,26.7
2018-08-25T06:38:02.953Z,26.6
2018-08-25T06:38:52.864Z,26.6
2018-08-25T06:39:43.195Z,26.6
2018-08-25T06:40:33.239Z,26.6
2018-08-25T06:41:23.043Z,26.6
2018-08-25T06:42:13.395Z,26.6
2018-08-25T06:43:03.187Z,26.6
2018-08-25T06:43:53.229Z,26.6
2018-08-25T06:44:43.308Z,26.6
2018-08-25T06:45:33.352Z,26.6
2018-08-25T06:46:23.756Z,26.6
2018-08-25T06:47:13.507Z,26.6
2018-08-25T06:48:03.858Z,26.6
2018-08-25T06:48:53.930Z,26.6
2018-08-25T06:49:43.398Z,26.6
2018-08-25T06:50:34.326Z,26.6
2018-08-25T06:51:24.092Z,26.6
2018-08-25T06:52:14.146Z,26.6
2018-08-25T06:53:03.988Z,26.6
2018-08-25T06:53:53.728Z,26.6
2018-08-25T06:54:43.227Z,26.6
2018-08-25T06:55:34.401Z,26.6
2018-08-25T06:56:24.211Z,26.6
2018-08-25T06:57:14.573Z,26.6
2018-08-25T06:58:04.665Z,26.6
2018-08-25T06:58:54.716Z,26.6
2018-08-25T06:59:44.756Z,26.6
2018-08-25T07:00:34.544Z,26.6
2018-08-25T07:01:24.873Z,26.6
2018-08-25T07:02:14.639Z,26.6
2018-08-25T07:03:04.719Z,26.6
2018-08-25T07:03:54.776Z,26.6
2018-08-25T07:04:44.791Z,26.6
2018-08-25T07:05:35.155Z,26.6
2018-08-25T07:06:25.275Z,26.6
2018-08-25T07:07:15.022Z,26.6
2018-08-25T07:08:05.378Z,26.6
2018-08-25T07:08:55.167Z,26.6
2018-08-25T07:09:45.794Z,26.6
2018-08-25T07:10:35.235Z,26.6
2018-08-25T07:11:25.055Z,26.6
2018-08-25T07:12:15.390Z,26.6
2018-08-25T07:13:05.698Z,26.6
2018-08-25T07:13:55.556Z,26.6
2018-08-25T07:14:45.870Z,26.6
2018-08-25T07:15:35.882Z,26.6
2018-08-25T07:16:24.855Z,26.6
2018-08-25T07:17:16.060Z,26.6
2018-08-25T07:18:05.835Z,32.3
2018-08-25T07:18:56.636Z,50.1
2018-08-25T07:19:46.015Z,55.4
2018-08-25T07:20:35.796Z,54.6
2018-08-25T07:22:16.499Z,51.8
2018-08-25T07:23:06.552Z,51.5
2018-08-25T07:23:56.039Z,51.1
2018-08-25T07:24:46.415Z,50.9
2018-08-25T07:25:36.098Z,50.8
2018-08-25T07:26:26.071Z,50.6
2018-08-25T07:27:16.282Z,50.4
2018-08-25T07:28:06.904Z,50.2
2018-08-25T07:28:56.947Z,49.9
2018-08-25T07:29:46.532Z,49.5
2018-08-25T07:30:37.054Z,49.1
2018-08-25T07:31:27.122Z,48.8
2018-08-25T07:32:18.317Z,48.4
2018-08-25T07:33:07.302Z,47.9
2018-08-25T07:33:57.086Z,47.5
2018-08-25T07:34:47.691Z,47.1
2018-08-25T07:35:37.492Z,46.6
2018-08-25T07:36:27.513Z,46.1
2018-08-25T07:37:17.040Z,45.6
2018-08-25T07:38:07.836Z,44.3
2018-08-25T07:38:57.161Z,46.1
2018-08-25T07:39:47.521Z,54.4
2018-08-25T07:40:37.876Z,55.9
2018-08-25T07:41:27.985Z,55.5
2018-08-25T07:42:17.753Z,53.4
2018-08-25T07:43:08.078Z,51
2018-08-25T07:43:58.140Z,50.1
2018-08-25T07:44:47.977Z,49.7
2018-08-25T07:45:37.685Z,49.5
2018-08-25T07:46:27.767Z,49.3
2018-08-25T07:47:18.095Z,49
2018-08-25T07:48:08.439Z,48.8
2018-08-25T07:48:57.970Z,48.7
2018-08-25T07:49:48.305Z,48.6
2018-08-25T07:50:38.343Z,47.4
2018-08-25T07:51:28.950Z,52.5
2018-08-25T07:53:08.884Z,59.7
2018-08-25T07:53:58.933Z,59.5
2018-08-25T07:54:48.398Z,57.3
2018-08-25T07:55:38.733Z,54.8
2018-08-25T07:56:28.783Z,53.2
2018-08-25T07:57:19.095Z,53.7
2018-08-25T07:58:08.716Z,55.2
2018-08-25T07:58:59.374Z,56.6
2018-08-25T07:59:49.040Z,57.3
2018-08-25T08:00:39.410Z,57.4
2018-08-25T08:01:29.147Z,56.9
2018-08-25T08:02:19.264Z,56.4
2018-08-25T08:03:09.317Z,56.3
2018-08-25T08:03:59.663Z,56.5
2018-08-25T08:04:49.699Z,57
2018-08-25T08:05:40.680Z,57.4
2018-08-25T08:06:29.036Z,57.6
2018-08-25T08:07:19.917Z,57.6
2018-08-25T08:08:09.826Z,57.5
2018-08-25T08:08:59.806Z,57.4
2018-08-25T08:09:50.129Z,57.4
2018-08-25T08:10:40.214Z,57.6
2018-08-25T08:12:21.135Z,57.9
2018-08-25T08:13:10.144Z,58
2018-08-25T08:14:00.486Z,58
2018-08-25T08:14:50.236Z,58
2018-08-25T08:15:40.648Z,58.1
2018-08-25T08:16:30.654Z,58.1
2018-08-25T08:17:20.418Z,58.1
2018-08-25T08:18:10.207Z,58.3
2018-08-25T08:19:00.840Z,58.4
2018-08-25T08:19:50.909Z,58.5
2018-08-25T08:21:30.483Z,58.7
2018-08-25T08:22:20.323Z,58.8
2018-08-25T08:23:10.890Z,58.9
2018-08-25T08:24:00.661Z,58.9
2018-08-25T08:24:51.263Z,59.1
2018-08-25T08:25:40.841Z,59.1
2018-08-25T08:26:31.126Z,59.3
2018-08-25T08:27:21.724Z,59.4
2018-08-25T08:28:12.182Z,59.5
2018-08-25T08:29:01.361Z,59.7
2018-08-25T08:29:51.665Z,59.9
2018-08-25T08:30:41.471Z,60
2018-08-25T08:31:31.799Z,60.1
2018-08-25T08:32:21.588Z,60.3
2018-08-25T08:33:12.867Z,60.5
2018-08-25T08:34:02.025Z,60.8
2018-08-25T08:34:51.783Z,60.9
2018-08-25T08:35:41.844Z,61.2
2018-08-25T08:36:31.926Z,61.4
2018-08-25T08:37:22.511Z,61.6
2018-08-25T08:38:12.340Z,61.7
2018-08-25T08:39:02.392Z,61.8
2018-08-25T08:39:52.225Z,61.8
2018-08-25T08:40:42.509Z,62
2018-08-25T08:41:32.597Z,62.1
2018-08-25T08:42:23.563Z,62.3
2018-08-25T08:43:12.472Z,62.4
2018-08-25T08:44:02.800Z,62.4
2018-08-25T08:44:52.835Z,62.5
2018-08-25T08:45:42.926Z,62.6
2018-08-25T08:46:32.713Z,62.7
2018-08-25T08:47:23.089Z,62.8
2018-08-25T08:48:12.851Z,62.9
2018-08-25T08:49:02.937Z,63.1
2018-08-25T08:49:53.072Z,63.3
2018-08-25T08:50:43.323Z,63.3
2018-08-25T08:51:33.630Z,63.4
2018-08-25T08:52:23.457Z,63.6
2018-08-25T08:53:12.934Z,63.8
2018-08-25T08:54:03.081Z,63.9
2018-08-25T08:54:53.644Z,64.1
2018-08-25T08:55:43.721Z,64.3
2018-08-25T08:56:33.755Z,64.3
2018-08-25T08:57:23.543Z,64.3
2018-08-25T08:58:13.775Z,64.3
2018-08-25T09:14:57.485Z,63.9
2018-08-25T09:15:47.002Z,63.9
2018-08-25T09:16:36.506Z,63.9
2018-08-25T09:17:27.429Z,64.1
2018-08-25T09:18:18.180Z,64.3
2018-08-25T09:19:07.816Z,64.4
2018-08-25T09:19:57.873Z,64.5
2018-08-25T09:20:47.646Z,64.5
2018-08-25T09:21:38.000Z,64.4
2018-08-25T09:22:26.945Z,64.3
2018-08-25T09:23:18.176Z,64.3
2018-08-25T09:24:08.226Z,64.3
2018-08-25T09:24:58.303Z,64.3
2018-08-25T09:25:48.345Z,64.4
2018-08-25T09:26:37.845Z,64.4
2018-08-25T09:27:29.030Z,64.6
2018-08-25T09:28:18.590Z,64.6
2018-08-25T09:29:08.630Z,64.6
2018-08-25T09:29:58.413Z,64.7
2018-08-25T09:30:48.749Z,64.8
2018-08-25T09:31:38.802Z,65
2018-08-25T09:32:28.598Z,65.3
2018-08-25T09:33:18.682Z,65.6
2018-08-25T09:34:08.744Z,65.8
2018-08-25T09:34:58.805Z,65.9
2018-08-25T09:35:49.575Z,65.9
2018-08-25T09:36:41.197Z,65.8
2018-08-25T09:37:29.282Z,65.7
2018-08-25T09:38:19.055Z,65.6
2018-08-25T09:39:09.409Z,65.6
2018-08-25T09:39:59.480Z,65.7
2018-08-25T09:40:48.958Z,65.9
2018-08-25T09:41:39.904Z,66
2018-08-25T09:42:29.665Z,66.1
2018-08-25T09:43:19.448Z,66.1
2018-08-25T09:44:09.239Z,66.1
2018-08-25T09:44:59.562Z,66.2
2018-08-25T09:45:50.174Z,66.3
2018-08-25T09:46:39.724Z,66.3
2018-08-25T09:47:29.193Z,66.4
2018-08-25T09:48:19.879Z,66.6
2018-08-25T09:49:10.188Z,66.7
2018-08-25T09:50:00.239Z,66.8
2018-08-25T09:50:50.582Z,66.9
2018-08-25T09:51:40.388Z,66.9
2018-08-25T09:52:30.467Z,66.9
2018-08-25T09:53:20.569Z,66.9
2018-08-25T09:54:10.559Z,66.9
2018-08-25T09:55:00.671Z,66.9
2018-08-25T09:55:50.439Z,67
2018-08-25T09:56:39.911Z,67.1
2018-08-25T09:57:30.827Z,66.9
2018-08-25T09:58:20.882Z,66.6
2018-08-25T09:59:11.255Z,66.4
2018-08-25T10:00:01.068Z,66.3
2018-08-25T10:00:51.101Z,66.3
2018-08-25T10:01:41.185Z,66.4
2018-08-25T10:02:31.222Z,66.5
2018-08-25T10:03:21.379Z,66.7
2018-08-25T10:04:11.105Z,66.8
2018-08-25T10:05:01.586Z,66.9
2018-08-25T10:05:51.526Z,67.1
2018-08-25T10:06:41.295Z,67.2
2018-08-25T10:07:31.369Z,67.2
2018-08-25T10:08:21.701Z,67.2
2018-08-25T10:09:11.481Z,67.3
2018-08-25T10:10:02.091Z,67.4
2018-08-25T10:10:52.389Z,67.8
2018-08-25T10:11:41.961Z,68
2018-08-25T10:12:32.028Z,68.3
2018-08-25T10:13:21.818Z,68.5
2018-08-25T10:14:12.158Z,68.6
2018-08-25T10:15:02.551Z,68.7
2018-08-25T10:15:52.005Z,68.6
2018-08-25T10:16:42.488Z,68.5
2018-08-25T10:17:32.429Z,68.6
2018-08-25T10:18:22.521Z,68.8
2018-08-25T10:19:12.536Z,69.1
2018-08-25T10:20:02.074Z,69.3
2018-08-25T10:20:52.658Z,69.5
2018-08-25T10:21:41.883Z,69.6
2018-08-25T10:23:22.290Z,69.7
2018-08-25T10:24:12.399Z,69.8
2018-08-25T10:25:03.323Z,69.9
2018-08-25T10:25:53.316Z,70
2018-08-25T10:26:43.195Z,70.2
2018-08-25T10:27:32.911Z,70.3
2018-08-25T10:28:22.970Z,70.3
2018-08-25T10:29:13.362Z,70.4
2018-08-25T10:30:03.685Z,70.5
2018-08-25T10:30:53.202Z,70.6
2018-08-25T10:31:42.692Z,70.8
2018-08-25T10:32:33.002Z,70.8
2018-08-25T10:33:23.367Z,70.8
2018-08-25T10:34:13.452Z,70.6
2018-08-25T10:35:03.799Z,70.6
2018-08-25T10:35:54.165Z,70.5
2018-08-25T10:36:44.192Z,70.4
2018-08-25T10:37:33.414Z,70.3
2018-08-25T10:38:24.322Z,70.4
2018-08-25T10:39:14.113Z,70.4
2018-08-25T10:40:04.199Z,70.4
2018-08-25T10:40:53.684Z,70.3
2018-08-25T10:41:45.112Z,69.9
2018-08-25T10:42:34.113Z,69.6
2018-08-25T10:43:24.174Z,69.3
2018-08-25T10:44:14.543Z,68.5
2018-08-25T10:45:04.348Z,67.9
2018-08-25T10:45:54.356Z,67.6
2018-08-25T10:46:43.569Z,67.7
2018-08-25T10:47:34.480Z,67.9
2018-08-25T10:48:24.846Z,67.9
2018-08-25T10:49:14.699Z,67.8
2018-08-25T10:50:04.991Z,67.5
2018-08-25T10:50:54.736Z,67.1
2018-08-25T10:51:45.100Z,67
2018-08-25T10:52:35.217Z,67.1
2018-08-25T10:53:24.965Z,67.4
2018-08-25T10:54:15.331Z,67.6
2018-08-25T10:55:05.089Z,67.9
2018-08-25T10:55:55.444Z,68.1
2018-08-25T10:56:45.489Z,68.3
2018-08-25T10:57:35.812Z,68.4
2018-08-25T10:58:25.347Z,68.7
2018-08-25T10:59:15.666Z,69
2018-08-25T11:00:05.879Z,69.2
2018-08-25T11:00:57.656Z,69.3
2018-08-25T11:01:45.342Z,69.4
2018-08-25T11:02:35.665Z,69.4
2018-08-25T11:03:26.298Z,69.5
2018-08-25T11:04:16.068Z,69.6
2018-08-25T11:05:06.131Z,69.8
2018-08-25T11:05:56.261Z,69.8
2018-08-25T11:06:46.255Z,69.8
2018-08-25T11:07:36.312Z,69.8
2018-08-25T11:08:26.138Z,69.8
2018-08-25T11:09:16.495Z,69.9
2018-08-25T11:10:05.972Z,70
2018-08-25T11:10:56.049Z,69.9
2018-08-25T11:11:46.472Z,70.1
2018-08-25T11:12:36.455Z,70.4
2018-08-25T11:13:26.791Z,70.6
2018-08-25T11:14:16.881Z,70.8
2018-08-25T11:15:06.646Z,70.9
2018-08-25T11:15:56.711Z,71
2018-08-25T11:16:46.782Z,71.1
2018-08-25T11:17:37.111Z,71.1
2018-08-25T11:18:27.200Z,70.9
2018-08-25T11:19:17.264Z,70.7
2018-08-25T11:20:07.386Z,70.1
2018-08-25T11:20:57.111Z,69.3
2018-08-25T11:21:47.168Z,68.8
2018-08-25T11:22:37.316Z,68.8
2018-08-25T11:23:27.601Z,69.1
2018-08-25T11:24:16.494Z,69.6
2018-08-25T11:25:07.462Z,69.9
2018-08-25T11:25:57.515Z,70.2
2018-08-25T11:26:47.850Z,70.2
2018-08-25T11:27:37.914Z,70.1
2018-08-25T11:28:27.416Z,69.9
2018-08-25T11:29:18.709Z,69.9
2018-08-25T11:30:07.836Z,70.1
2018-08-25T11:30:57.317Z,70.3
2018-08-25T11:31:48.497Z,70.4
2018-08-25T11:32:38.019Z,70.6
2018-08-25T11:33:28.096Z,70.6
2018-08-25T11:34:18.437Z,70.6
2018-08-25T11:35:08.460Z,70.5
2018-08-25T11:35:58.000Z,70.5
2018-08-25T11:36:48.317Z,70.5
2018-08-25T11:37:39.572Z,70.5
2018-08-25T11:38:28.483Z,70.5
2018-08-25T11:39:18.566Z,70.4
2018-08-25T11:40:08.917Z,70.3
2018-08-25T11:40:59.267Z,70
2018-08-25T11:41:49.022Z,69.7
2018-08-25T11:42:38.516Z,69.6
2018-08-25T11:43:29.146Z,69.6
2018-08-25T11:44:18.644Z,69.7
2018-08-25T11:45:09.010Z,69.8
2018-08-25T11:45:59.340Z,69.8
2018-08-25T11:46:49.411Z,69.7
2018-08-25T11:47:39.216Z,69.5
2018-08-25T11:48:29.262Z,69.4
2018-08-25T11:49:18.786Z,69.3
2018-08-25T11:50:09.674Z,69.2
2018-08-25T11:50:59.750Z,69.2
2018-08-25T11:51:49.539Z,69.2
2018-08-25T11:52:39.899Z,69.1
2018-08-25T11:53:29.365Z,69.1
2018-08-25T11:54:20.015Z,69.1
2018-08-25T11:55:10.086Z,68.9
2018-08-25T11:56:00.449Z,68.8
2018-08-25T11:56:50.195Z,68.6
2018-08-25T11:57:39.685Z,68.4
2018-08-25T11:58:30.044Z,68.4
2018-08-25T11:59:19.826Z,68.4
2018-08-25T12:00:10.513Z,68.6
2018-08-25T12:01:00.541Z,68.9
2018-08-25T12:01:50.573Z,69.1
2018-08-25T12:02:40.688Z,69.1
2018-08-25T12:03:30.616Z,68.9
2018-08-25T12:04:19.358Z,68.8
2018-08-25T12:05:10.871Z,68.6
2018-08-25T12:06:00.965Z,68.6